Time;durP1;ratioP1;P1;durP2;ratioP2;P2;SDS_P1;SDS_P2;PMS_P1;PMS_P2;Temp;Humidity;BMP_temperature;BMP_pressure;BME280_temperature;BME280_humidity;BME280_pressure;Samples;Min_cycle;Max_cycle;Signal;HPM_P1;HPM_P2
2023/12/09 00:00:49;;;;;;;0.00;0.00;;;;;;;3.70;100.00;99001.25;5154221;27;20200;-51
2023/12/09 00:03:36;;;;;;;0.00;0.00;;;;;;;3.61;100.00;99004.22;5155198;27;20314;-51
2023/12/09 00:06:23;;;;;;;0.00;0.00;;;;;;;3.68;100.00;99008.31;5155538;27;20227;-52
2023/12/09 00:09:11;;;;;;;0.00;0.00;;;;;;;3.53;100.00;99021.97;5155374;27;20655;-51
2023/12/09 00:11:58;;;;;;;0.00;0.00;;;;;;;3.73;100.00;99019.44;5139128;27;20192;-52
2023/12/09 00:14:46;;;;;;;0.00;0.00;;;;;;;3.84;100.00;99022.50;5155234;27;20677;-52
2023/12/09 00:17:34;;;;;;;0.00;0.00;;;;;;;3.86;100.00;99025.94;5153826;27;20197;-52
2023/12/09 00:20:20;;;;;;;0.00;0.00;;;;;;;3.89;100.00;99024.97;5154976;27;20275;-52
2023/12/09 00:23:07;;;;;;;0.00;0.00;;;;;;;3.89;100.00;99025.81;5155025;27;20209;-52
2023/12/09 00:25:54;;;;;;;0.00;0.00;;;;;;;4.12;100.00;99026.66;5155065;27;20192;-53
2023/12/09 00:28:41;;;;;;;0.00;0.00;;;;;;;4.01;100.00;99034.94;5154397;27;20220;-52
2023/12/09 00:31:29;;;;;;;0.00;0.00;;;;;;;3.98;100.00;99035.06;5153306;27;20212;-52
2023/12/09 00:34:16;;;;;;;0.00;0.00;;;;;;;3.99;100.00;99036.78;5154850;27;20197;-52
2023/12/09 00:37:03;;;;;;;0.00;0.00;;;;;;;4.08;100.00;99027.72;5154685;27;20196;-52
2023/12/09 00:39:50;;;;;;;0.00;0.00;;;;;;;3.98;100.00;99027.22;5154548;27;20192;-52
2023/12/09 00:42:37;;;;;;;0.00;0.00;;;;;;;3.99;100.00;99028.91;5154586;27;20235;-52
2023/12/09 00:45:25;;;;;;;0.00;0.00;;;;;;;3.97;100.00;99030.75;5154430;27;20702;-53
2023/12/09 00:48:13;;;;;;;0.00;0.00;;;;;;;4.08;100.00;99025.09;5155023;27;20782;-52
2023/12/09 00:51:00;;;;;;;0.00;0.00;;;;;;;3.97;100.00;99031.59;5154405;27;20217;-52
2023/12/09 00:53:47;;;;;;;0.00;0.00;;;;;;;3.98;100.00;99025.44;5154416;27;20184;-52
2023/12/09 00:56:34;;;;;;;0.00;0.00;;;;;;;4.02;100.00;99028.78;5154636;27;20208;-52
2023/12/09 00:59:21;;;;;;;0.00;0.00;;;;;;;3.96;100.00;99031.66;5154395;27;20290;-53
2023/12/09 01:02:08;;;;;;;0.00;0.00;;;;;;;4.08;100.00;99031.19;5153232;27;20184;-52
2023/12/09 01:04:57;;;;;;;0.00;0.00;;;;;;;4.09;100.00;99043.38;5154517;27;20271;-53
2023/12/09 01:07:43;;;;;;;0.00;0.00;;;;;;;4.06;100.00;99046.13;5154531;27;20216;-52
2023/12/09 01:10:30;;;;;;;0.00;0.00;;;;;;;4.27;100.00;99040.00;5138320;27;20444;-52
2023/12/09 01:13:17;;;;;;;0.00;0.00;;;;;;;4.38;100.00;99039.56;5154260;27;20192;-53
2023/12/09 01:16:05;;;;;;;0.00;0.00;;;;;;;4.15;100.00;99043.13;5152936;27;20200;-52
2023/12/09 01:18:52;;;;;;;0.00;0.00;;;;;;;4.22;100.00;99052.44;5154464;27;20283;-53
2023/12/09 01:21:40;;;;;;;0.00;0.00;;;;;;;4.17;100.00;99053.56;5154410;27;20196;-53
2023/12/09 01:24:27;;;;;;;0.10;0.10;;;;;;;4.02;100.00;99066.31;5153986;27;20212;-53
2023/12/09 01:27:14;;;;;;;0.00;0.00;;;;;;;4.08;100.00;99056.53;5154151;27;20265;-53
2023/12/09 01:30:01;;;;;;;0.00;0.00;;;;;;;4.01;100.00;99061.16;5154232;27;20270;-52
2023/12/09 01:32:48;;;;;;;0.00;0.00;;;;;;;4.06;100.00;99064.47;5153201;27;20185;-52
2023/12/09 01:35:35;;;;;;;0.00;0.00;;;;;;;4.20;100.00;99069.16;5154148;27;20208;-53
2023/12/09 01:38:23;;;;;;;0.00;0.00;;;;;;;4.25;100.00;99062.81;5153920;27;20189;-52
2023/12/09 01:41:10;;;;;;;0.00;0.00;;;;;;;4.24;100.00;99066.31;5154075;27;20314;-52
2023/12/09 01:43:57;;;;;;;0.00;0.00;;;;;;;4.27;100.00;99065.38;5154177;27;20230;-52
2023/12/09 01:46:44;;;;;;;0.00;0.00;;;;;;;4.17;100.00;99070.13;5152626;27;20193;-53
2023/12/09 01:49:31;;;;;;;0.00;0.00;;;;;;;4.08;100.00;99069.63;5153754;27;20538;-52
2023/12/09 01:52:19;;;;;;;0.00;0.00;;;;;;;4.11;100.00;99069.50;5153812;27;20279;-53
2023/12/09 01:55:10;;;;;;;0.07;0.07;;;;;;;4.01;100.00;99071.63;5154037;27;20184;-52
2023/12/09 01:57:57;;;;;;;0.00;0.00;;;;;;;4.00;100.00;99073.41;5154073;27;20212;-52
2023/12/09 02:00:44;;;;;;;0.10;0.10;;;;;;;4.12;100.00;99064.19;5152560;27;20960;-52
2023/12/09 02:03:32;;;;;;;0.00;0.00;;;;;;;4.18;100.00;99057.88;5153800;27;20318;-52
2023/12/09 02:06:19;;;;;;;0.00;0.00;;;;;;;4.14;100.00;99037.91;5154083;27;20193;-52
2023/12/09 02:09:06;;;;;;;0.00;0.00;;;;;;;4.10;100.00;99037.22;5153780;27;20216;-52
2023/12/09 02:12:03;;;;;;;0.00;0.00;;;;;;;4.00;100.00;99041.09;5153507;27;20699;-52
2023/12/09 02:15:00;;;;;;;0.00;0.00;;;;;;;4.06;100.00;99030.41;5154034;27;20197;-52
2023/12/09 02:17:53;;;;;;;0.03;0.03;;;;;;;4.07;100.00;99036.50;5156638;27;20713;-52
2023/12/09 02:20:40;;;;;;;0.00;0.00;;;;;;;4.18;100.00;99026.41;5157449;27;20189;-52
2023/12/09 02:23:29;;;;;;;0.00;0.00;;;;;;;4.24;100.00;99028.78;5157257;27;20307;-52
2023/12/09 02:26:19;;;;;;;0.00;0.00;;;;;;;4.18;100.00;99016.78;5157549;27;20189;-52
2023/12/09 02:29:08;;;;;;;0.00;0.00;;;;;;;4.22;100.00;99018.34;5157472;27;20607;-51
2023/12/09 02:32:03;;;;;;;0.10;0.10;;;;;;;4.22;100.00;99012.25;5155476;27;20266;-52
2023/12/09 02:34:54;;;;;;;0.10;0.10;;;;;;;4.07;100.00;98997.19;5157356;27;20189;-52
2023/12/09 02:37:43;;;;;;;0.00;0.00;;;;;;;4.10;100.00;98997.03;5156842;27;20197;-52
2023/12/09 02:40:33;;;;;;;0.07;0.07;;;;;;;4.22;100.00;98991.28;5157196;27;20211;-52
2023/12/09 02:43:20;;;;;;;0.10;0.10;;;;;;;4.13;100.00;98995.13;5157087;27;20303;-53
2023/12/09 02:46:06;;;;;;;0.00;0.00;;;;;;;4.13;100.00;98989.03;5155617;27;20192;-53
2023/12/09 02:48:53;;;;;;;0.00;0.00;;;;;;;4.08;100.00;98988.41;5141198;27;20196;-52
2023/12/09 02:51:40;;;;;;;0.10;0.10;;;;;;;4.18;100.00;98974.00;5156594;27;20266;-52
2023/12/09 02:54:27;;;;;;;0.00;0.00;;;;;;;4.20;100.00;98973.00;5156781;27;20201;-52
2023/12/09 02:57:16;;;;;;;0.00;0.00;;;;;;;4.12;100.00;98980.34;5156923;27;20238;-52
2023/12/09 03:00:03;;;;;;;0.00;0.00;;;;;;;4.01;100.00;98970.28;5156896;27;20254;-52
2023/12/09 03:02:50;;;;;;;0.00;0.00;;;;;;;3.99;100.00;98966.03;5156550;27;20272;-52
2023/12/09 03:05:37;;;;;;;0.00;0.00;;;;;;;4.08;100.00;98954.34;5157011;27;20234;-53
2023/12/09 03:08:23;;;;;;;0.00;0.00;;;;;;;4.02;100.00;98948.41;5156581;27;20644;-52
2023/12/09 03:11:10;;;;;;;0.10;0.10;;;;;;;4.11;100.00;98957.66;5156329;27;20236;-52
2023/12/09 03:13:58;;;;;;;0.00;0.00;;;;;;;4.10;100.00;98955.97;5156471;27;20732;-52
2023/12/09 03:16:45;;;;;;;0.00;0.00;;;;;;;4.09;100.00;98959.50;5155149;27;20227;-52
2023/12/09 03:19:32;;;;;;;0.00;0.00;;;;;;;4.23;100.00;98958.91;5156288;27;20193;-53
2023/12/09 03:22:19;;;;;;;0.00;0.00;;;;;;;4.49;100.00;98963.94;5156151;27;20196;-52
2023/12/09 03:25:06;;;;;;;0.00;0.00;;;;;;;4.40;100.00;98964.31;5156441;27;20263;-52
2023/12/09 03:27:53;;;;;;;0.10;0.10;;;;;;;4.30;100.00;98960.38;5154684;27;20232;-52
2023/12/09 03:30:41;;;;;;;0.00;0.00;;;;;;;4.26;100.00;98956.19;5154672;27;20197;-52
2023/12/09 03:33:28;;;;;;;0.10;0.10;;;;;;;4.35;100.00;98952.34;5155947;27;20235;-52
2023/12/09 03:36:15;;;;;;;0.00;0.00;;;;;;;4.50;100.00;98959.53;5156016;27;20199;-52
2023/12/09 03:39:03;;;;;;;0.00;0.00;;;;;;;4.43;100.00;98958.09;5155877;27;20204;-52
2023/12/09 03:41:50;;;;;;;0.00;0.00;;;;;;;4.28;100.00;98949.13;5156088;27;20246;-52
2023/12/09 03:44:37;;;;;;;0.00;0.00;;;;;;;4.61;100.00;98962.56;5155706;27;20185;-52
2023/12/09 03:47:25;;;;;;;0.00;0.00;;;;;;;4.35;100.00;98953.19;5154410;27;20205;-53
2023/12/09 03:50:15;;;;;;;0.00;0.00;;;;;;;4.43;100.00;98956.31;5139907;27;20184;-52
2023/12/09 03:53:02;;;;;;;0.00;0.00;;;;;;;4.38;100.00;98954.81;5155188;27;20212;-52
2023/12/09 03:55:49;;;;;;;0.00;0.00;;;;;;;4.37;100.00;98943.47;5155728;27;20682;-52
2023/12/09 03:58:37;;;;;;;0.00;0.00;;;;;;;4.27;100.00;98953.50;5155499;27;20192;-52
2023/12/09 04:01:24;;;;;;;0.00;0.00;;;;;;;4.38;100.00;98950.44;5154289;27;20188;-52
2023/12/09 04:04:13;;;;;;;0.07;0.07;;;;;;;4.42;100.00;98952.00;5155672;27;20242;-52
2023/12/09 04:06:59;;;;;;;0.00;0.00;;;;;;;4.41;100.00;98947.66;5155336;27;20192;-52
2023/12/09 04:09:46;;;;;;;0.00;0.00;;;;;;;4.35;100.00;98944.47;5155188;27;20269;-53
2023/12/09 04:12:33;;;;;;;0.00;0.00;;;;;;;4.13;100.00;98952.34;5154948;27;20698;-52
2023/12/09 04:15:20;;;;;;;0.00;0.00;;;;;;;4.22;100.00;98954.59;5154809;27;20196;-53
2023/12/09 04:18:07;;;;;;;0.00;0.00;;;;;;;4.21;100.00;98958.13;5155078;27;20193;-52
2023/12/09 04:20:55;;;;;;;0.00;0.00;;;;;;;4.26;100.00;98962.28;5155243;27;20550;-52
2023/12/09 04:23:42;;;;;;;0.00;0.00;;;;;;;4.18;100.00;98959.13;5155228;27;20214;-52
2023/12/09 04:26:29;;;;;;;0.00;0.00;;;;;;;4.36;100.00;98941.78;5154746;27;20555;-52
2023/12/09 04:29:15;;;;;;;0.00;0.00;;;;;;;4.13;100.00;98945.34;5155037;27;20192;-52
2023/12/09 04:32:02;;;;;;;0.10;0.10;;;;;;;4.28;100.00;98938.63;5153507;27;20213;-52
2023/12/09 04:34:49;;;;;;;0.00;0.00;;;;;;;4.31;100.00;98944.59;5154685;27;20197;-52
2023/12/09 04:37:38;;;;;;;0.00;0.00;;;;;;;4.40;100.00;98943.34;5154575;27;20196;-52
2023/12/09 04:40:25;;;;;;;0.00;0.00;;;;;;;4.22;100.00;98944.13;5154864;27;20294;-52
2023/12/09 04:43:11;;;;;;;0.00;0.00;;;;;;;4.36;100.00;98940.94;5154709;27;20189;-52
2023/12/09 04:45:58;;;;;;;0.10;0.10;;;;;;;4.21;100.00;98938.03;5153297;27;20189;-53
2023/12/09 04:48:45;;;;;;;0.00;0.00;;;;;;;4.35;100.00;98940.09;5154681;27;20573;-53
2023/12/09 04:51:32;;;;;;;0.00;0.00;;;;;;;4.31;100.00;98931.47;5154654;27;20234;-52
2023/12/09 04:54:20;;;;;;;0.00;0.00;;;;;;;4.29;100.00;98942.94;5138867;27;20216;-52
2023/12/09 04:57:07;;;;;;;0.00;0.00;;;;;;;4.37;100.00;98945.25;5154869;27;20189;-52
2023/12/09 04:59:54;;;;;;;0.00;0.00;;;;;;;4.37;100.00;98948.72;5154398;27;20678;-52
2023/12/09 05:02:41;;;;;;;0.00;0.00;;;;;;;4.24;100.00;98947.50;5153191;27;20257;-53
2023/12/09 05:05:28;;;;;;;0.00;0.00;;;;;;;4.39;100.00;98944.25;5154587;27;20191;-52
2023/12/09 05:08:15;;;;;;;0.00;0.00;;;;;;;4.24;100.00;98942.28;5154329;27;20215;-53
2023/12/09 05:11:03;;;;;;;0.00;0.00;;;;;;;4.46;100.00;98945.72;5154353;27;20196;-52
2023/12/09 05:13:50;;;;;;;0.00;0.00;;;;;;;4.19;100.00;98949.50;5154083;27;20254;-53
2023/12/09 05:16:37;;;;;;;0.00;0.00;;;;;;;4.21;100.00;98947.66;5152927;27;20315;-52
2023/12/09 05:19:24;;;;;;;0.00;0.00;;;;;;;4.29;100.00;98951.66;5154296;27;20364;-52
2023/12/09 05:22:11;;;;;;;0.00;0.00;;;;;;;4.25;100.00;98942.25;5154322;27;20192;-52
2023/12/09 05:24:58;;;;;;;0.00;0.00;;;;;;;4.27;100.00;98953.50;5154120;27;20484;-52
2023/12/09 05:27:47;;;;;;;0.00;0.00;;;;;;;4.25;100.00;98944.84;5153996;27;20224;-52
2023/12/09 05:30:34;;;;;;;0.00;0.00;;;;;;;4.18;100.00;98943.41;5153018;27;20208;-53
2023/12/09 05:33:21;;;;;;;0.03;0.03;;;;;;;4.36;100.00;98943.56;5153849;27;20220;-53
2023/12/09 05:36:08;;;;;;;0.00;0.00;;;;;;;4.31;100.00;98935.88;5154074;27;20364;-52
2023/12/09 05:38:55;;;;;;;0.00;0.00;;;;;;;4.29;100.00;98933.31;5154017;27;20192;-52
2023/12/09 05:41:42;;;;;;;0.00;0.00;;;;;;;4.37;100.00;98935.63;5154045;27;20197;-52
2023/12/09 05:44:31;;;;;;;0.00;0.00;;;;;;;4.35;100.00;98940.09;5154245;27;20273;-52
2023/12/09 05:47:17;;;;;;;0.00;0.00;;;;;;;4.30;100.00;98923.69;5152856;27;20197;-52
2023/12/09 05:50:05;;;;;;;0.00;0.00;;;;;;;4.39;100.00;98917.19;5154573;27;20192;-52
2023/12/09 05:52:52;;;;;;;0.10;0.10;;;;;;;4.29;100.00;98914.13;5158029;27;20209;-53
2023/12/09 05:55:39;;;;;;;0.00;0.00;;;;;;;4.28;100.00;98920.28;5158048;27;20193;-52
2023/12/09 05:58:26;;;;;;;0.00;0.00;;;;;;;4.08;100.00;98915.03;5158000;27;20188;-53
2023/12/09 06:01:14;;;;;;;0.00;0.00;;;;;;;4.21;100.00;98911.81;5156620;27;20192;-52
2023/12/09 06:04:01;;;;;;;0.00;0.00;;;;;;;4.29;100.00;98906.25;5157855;27;20299;-53
2023/12/09 06:06:48;;;;;;;0.00;0.00;;;;;;;4.22;100.00;98899.56;5157887;27;20199;-52
2023/12/09 06:09:35;;;;;;;0.00;0.00;;;;;;;4.28;100.00;98915.88;5157746;27;20317;-52
2023/12/09 06:12:22;;;;;;;0.00;0.00;;;;;;;4.42;100.00;98915.28;5157571;27;20229;-52
2023/12/09 06:15:10;;;;;;;0.00;0.00;;;;;;;4.36;100.00;98912.09;5157511;27;20254;-52
2023/12/09 06:17:58;;;;;;;0.00;0.00;;;;;;;4.48;100.00;98914.19;5157401;27;20196;-52
2023/12/09 06:20:44;;;;;;;0.00;0.00;;;;;;;4.53;100.00;98901.69;5157603;27;20196;-52
2023/12/09 06:23:31;;;;;;;0.00;0.00;;;;;;;4.50;100.00;98893.97;5157409;27;20189;-52
2023/12/09 06:26:19;;;;;;;0.00;0.00;;;;;;;4.60;100.00;98892.66;5157482;27;20352;-52
2023/12/09 06:29:06;;;;;;;0.00;0.00;;;;;;;4.47;100.00;98892.34;5157415;27;20196;-52
2023/12/09 06:31:53;;;;;;;0.00;0.00;;;;;;;4.44;100.00;98892.50;5156162;27;20309;-51
2023/12/09 06:34:41;;;;;;;0.00;0.00;;;;;;;4.59;100.00;98894.44;5157425;27;20196;-52
2023/12/09 06:37:28;;;;;;;0.00;0.00;;;;;;;4.50;100.00;98896.59;5141635;27;20234;-52
2023/12/09 06:40:15;;;;;;;0.00;0.00;;;;;;;4.52;100.00;98889.50;5157114;27;20374;-53
2023/12/09 06:43:02;;;;;;;0.00;0.00;;;;;;;4.57;100.00;98892.81;5157365;27;20310;-52
2023/12/09 06:45:49;;;;;;;0.00;0.00;;;;;;;4.76;100.00;98890.22;5155751;27;20193;-53
2023/12/09 06:48:37;;;;;;;0.00;0.00;;;;;;;4.60;100.00;98896.13;5156792;27;20257;-53
2023/12/09 06:51:26;;;;;;;0.00;0.00;;;;;;;4.63;100.00;98889.88;5156810;27;20189;-52
2023/12/09 06:54:13;;;;;;;0.00;0.00;;;;;;;4.55;100.00;98887.63;5156654;27;20216;-52
2023/12/09 06:57:00;;;;;;;0.00;0.00;;;;;;;4.69;100.00;98891.41;5157041;27;20193;-52
2023/12/09 06:59:47;;;;;;;0.00;0.00;;;;;;;4.66;100.00;98896.78;5157053;27;20189;-52
2023/12/09 07:02:33;;;;;;;0.00;0.00;;;;;;;4.71;100.00;98893.03;5155545;27;20196;-52
2023/12/09 07:05:38;;;;;;;0.00;0.00;;;;;;;4.69;100.00;98878.28;5156806;27;20197;-52
2023/12/09 07:08:26;;;;;;;0.00;0.00;;;;;;;4.75;100.00;98881.50;5156635;27;20361;-52
2023/12/09 07:11:17;;;;;;;0.00;0.00;;;;;;;4.87;100.00;98886.19;5156419;27;20208;-52
2023/12/09 07:14:04;;;;;;;0.00;0.00;;;;;;;4.73;100.00;98890.34;5156335;27;20251;-52
2023/12/09 07:16:51;;;;;;;0.00;0.00;;;;;;;4.81;100.00;98896.09;5155447;27;20205;-52
2023/12/09 07:19:38;;;;;;;0.00;0.00;;;;;;;4.71;100.00;98898.28;5156488;27;20201;-52
2023/12/09 07:22:25;;;;;;;0.00;0.00;;;;;;;4.76;100.00;98906.81;5156545;27;20678;-52
2023/12/09 07:25:13;;;;;;;0.00;0.00;;;;;;;4.68;100.00;98908.91;5156577;27;20258;-52
2023/12/09 07:28:00;;;;;;;0.00;0.00;;;;;;;4.59;100.00;98909.31;5156002;27;20266;-52
2023/12/09 07:30:47;;;;;;;0.00;0.00;;;;;;;4.81;100.00;98917.94;5155300;27;20189;-52
2023/12/09 07:33:34;;;;;;;0.00;0.00;;;;;;;5.00;100.00;98904.84;5156193;27;20220;-52
2023/12/09 07:36:21;;;;;;;0.00;0.00;;;;;;;4.97;100.00;98915.47;5156063;27;20196;-52
2023/12/09 07:39:08;;;;;;;0.00;0.00;;;;;;;4.97;100.00;98907.63;5156253;27;20543;-52
2023/12/09 07:41:57;;;;;;;0.00;0.00;;;;;;;4.83;100.00;98903.00;5156239;27;20196;-52
2023/12/09 07:44:44;;;;;;;0.00;0.00;;;;;;;4.78;100.00;98910.22;5155980;27;20181;-52
2023/12/09 07:47:30;;;;;;;0.00;0.00;;;;;;;4.75;100.00;98902.47;5154605;27;20269;-52
2023/12/09 07:50:18;;;;;;;0.00;0.00;;;;;;;4.78;100.00;98904.09;5155879;27;20197;-52
2023/12/09 07:53:05;;;;;;;0.00;0.00;;;;;;;5.09;100.00;98909.66;5155815;27;20193;-52
2023/12/09 07:55:52;;;;;;;0.00;0.00;;;;;;;5.16;100.00;98908.47;5155872;27;20303;-53
2023/12/09 07:58:40;;;;;;;0.00;0.00;;;;;;;5.03;100.00;98898.63;5155741;27;20273;-52
2023/12/09 08:01:27;;;;;;;0.00;0.00;;;;;;;5.04;100.00;98887.19;5154297;27;20197;-52
2023/12/09 08:04:14;;;;;;;0.00;0.00;;;;;;;5.06;100.00;98891.44;5140100;27;20184;-52
2023/12/09 08:07:01;;;;;;;0.00;0.00;;;;;;;5.11;100.00;98884.19;5155502;27;20269;-52
2023/12/09 08:09:48;;;;;;;0.00;0.00;;;;;;;5.20;100.00;98897.81;5155489;27;20273;-52
2023/12/09 08:12:35;;;;;;;0.00;0.00;;;;;;;5.17;100.00;98890.94;5155104;27;20273;-52
2023/12/09 08:15:23;;;;;;;0.00;0.00;;;;;;;4.92;100.00;98879.84;5154224;27;20728;-52
2023/12/09 08:18:10;;;;;;;0.00;0.00;;;;;;;5.12;100.00;98885.94;5155413;27;20204;-53
2023/12/09 08:20:58;;;;;;;0.00;0.00;;;;;;;5.08;100.00;98880.88;5155345;27;20189;-52
2023/12/09 08:23:45;;;;;;;0.00;0.00;;;;;;;5.06;100.00;98867.81;5154903;27;20193;-53
2023/12/09 08:26:32;;;;;;;0.00;0.00;;;;;;;4.99;100.00;98869.03;5155023;27;20188;-52
2023/12/09 08:29:20;;;;;;;0.00;0.00;;;;;;;5.21;100.00;98865.38;5155231;27;20185;-52
2023/12/09 08:32:09;;;;;;;0.00;0.00;;;;;;;4.99;100.00;98855.91;5153855;27;20670;-52
2023/12/09 08:34:55;;;;;;;0.00;0.00;;;;;;;4.88;100.00;98855.53;5154700;27;20220;-52
2023/12/09 08:37:55;;;;;;;0.00;0.00;;;;;;;4.97;100.00;98843.78;5154782;27;20716;-53
2023/12/09 08:40:42;;;;;;;0.00;0.00;;;;;;;4.95;100.00;98849.09;5155013;27;20704;-52
2023/12/09 08:43:28;;;;;;;0.00;0.00;;;;;;;4.97;100.00;98846.41;5155080;27;20188;-52
2023/12/09 08:46:15;;;;;;;0.00;0.00;;;;;;;5.03;100.00;98846.97;5153691;27;20193;-52
2023/12/09 08:49:04;;;;;;;0.10;0.10;;;;;;;5.07;100.00;98843.28;5154796;27;20185;-52
2023/12/09 08:51:51;;;;;;;0.00;0.00;;;;;;;5.11;100.00;98838.72;5154850;27;20192;-52
2023/12/09 08:54:38;;;;;;;0.00;0.00;;;;;;;5.21;100.00;98847.00;5154711;27;20212;-52
2023/12/09 08:57:25;;;;;;;0.00;0.00;;;;;;;5.18;100.00;98832.28;5154793;27;20270;-52
2023/12/09 09:00:13;;;;;;;0.03;0.03;;;;;;;5.09;100.00;98828.31;5154343;27;20200;-52
2023/12/09 09:03:03;;;;;;;0.00;0.00;;;;;;;5.12;100.00;98838.69;5154543;27;20212;-52
2023/12/09 09:05:51;;;;;;;0.00;0.00;;;;;;;5.12;100.00;98825.56;5154541;27;20280;-52
2023/12/09 09:08:38;;;;;;;0.00;0.00;;;;;;;5.08;100.00;98823.97;5154385;27;20189;-51
2023/12/09 09:11:25;;;;;;;0.00;0.00;;;;;;;5.17;100.00;98820.91;5154696;27;20192;-52
2023/12/09 09:14:12;;;;;;;0.00;0.00;;;;;;;5.29;100.00;98821.25;5154399;27;20740;-53
2023/12/09 09:16:59;;;;;;;0.00;0.00;;;;;;;5.20;100.00;98811.19;5153374;27;20214;-51
2023/12/09 09:19:46;;;;;;;0.00;0.00;;;;;;;5.31;100.00;98816.81;5153985;27;20189;-52
2023/12/09 09:22:35;;;;;;;0.00;0.00;;;;;;;5.53;100.00;98813.97;5154145;27;20199;-52
2023/12/09 09:25:22;;;;;;;0.03;0.03;;;;;;;5.62;100.00;98817.00;5155813;27;20197;-52
2023/12/09 09:28:09;;;;;;;0.00;0.00;;;;;;;5.77;100.00;98825.88;5158466;27;20228;-52
2023/12/09 09:30:56;;;;;;;0.07;0.07;;;;;;;5.62;100.00;98824.88;5157230;27;20196;-52
2023/12/09 09:33:43;;;;;;;0.00;0.00;;;;;;;5.54;100.00;98821.78;5158663;27;20192;-52
2023/12/09 09:36:30;;;;;;;0.00;0.00;;;;;;;5.60;100.00;98828.53;5158352;27;20298;-52
2023/12/09 09:39:18;;;;;;;0.00;0.00;;;;;;;5.52;100.00;98812.28;5158443;27;20298;-52
2023/12/09 09:42:14;;;;;;;0.00;0.00;;;;;;;5.83;100.00;98824.75;5158571;27;20556;-52
2023/12/09 09:45:12;;;;;;;0.00;0.00;;;;;;;5.83;100.00;98814.22;5158036;27;20246;-52
2023/12/09 09:48:04;;;;;;;0.00;0.00;;;;;;;5.96;100.00;98824.06;5158419;27;20193;-53
2023/12/09 09:50:53;;;;;;;0.00;0.00;;;;;;;5.73;100.00;98829.59;5158347;27;20201;-53
2023/12/09 09:53:46;;;;;;;0.00;0.00;;;;;;;5.69;100.00;98822.78;5158378;27;20758;-53
2023/12/09 09:56:35;;;;;;;0.10;0.10;;;;;;;5.68;100.00;98824.56;5157986;27;20567;-52
2023/12/09 09:59:21;;;;;;;0.00;0.00;;;;;;;5.91;100.00;98825.25;5158180;27;20252;-52
2023/12/09 10:02:11;;;;;;;0.10;0.10;;;;;;;6.05;100.00;98814.88;5156711;27;20183;-52
2023/12/09 10:04:57;;;;;;;0.07;0.07;;;;;;;5.89;100.00;98812.16;5158125;27;20539;-53
2023/12/09 10:07:45;;;;;;;0.10;0.10;;;;;;;5.85;100.00;98791.34;5158178;27;20258;-52
2023/12/09 10:10:34;;;;;;;0.00;0.00;;;;;;;5.83;100.00;98780.06;5157616;27;20688;-52
2023/12/09 10:13:22;;;;;;;0.00;0.00;;;;;;;6.03;100.00;98779.94;5157960;27;20299;-52
2023/12/09 10:16:09;;;;;;;0.03;0.03;;;;;;;6.09;100.00;98782.25;5156325;27;20338;-53
2023/12/09 10:18:57;;;;;;;0.10;0.10;;;;;;;6.07;100.00;98767.47;5157562;27;20188;-52
2023/12/09 10:21:44;;;;;;;0.00;0.00;;;;;;;6.17;100.00;98758.16;5157861;27;20193;-52
2023/12/09 10:24:31;;;;;;;0.10;0.10;;;;;;;6.20;100.00;98753.59;5157618;27;20685;-52
2023/12/09 10:27:20;;;;;;;0.00;0.00;;;;;;;6.32;100.00;98747.69;5157263;27;20756;-52
2023/12/09 10:30:09;;;;;;;0.00;0.00;;;;;;;6.38;100.00;98730.75;5157599;27;20197;-52
2023/12/09 10:32:58;;;;;;;0.00;0.00;;;;;;;6.34;100.00;98730.97;5157503;27;20270;-52
2023/12/09 10:35:46;;;;;;;0.10;0.10;;;;;;;6.32;100.00;98715.28;5156692;27;20216;-53
2023/12/09 10:38:33;;;;;;;0.00;0.00;;;;;;;6.35;100.00;98709.84;5157085;27;20282;-52
2023/12/09 10:41:22;;;;;;;0.00;0.00;;;;;;;6.28;100.00;98711.13;5157422;27;20277;-52
2023/12/09 10:44:09;;;;;;;0.00;0.00;;;;;;;6.29;100.00;98695.25;5157219;27;20265;-52
2023/12/09 10:46:57;;;;;;;0.00;0.00;;;;;;;6.31;100.00;98685.50;5156051;27;20181;-52
2023/12/09 10:49:44;;;;;;;0.00;0.00;;;;;;;6.19;100.00;98675.66;5157213;27;20181;-52
2023/12/09 10:52:31;;;;;;;0.00;0.00;;;;;;;6.10;100.00;98672.69;5156624;27;20749;-51
2023/12/09 10:55:21;;;;;;;0.00;0.00;;;;;;;6.35;100.00;98656.41;5156867;27;20216;-52
2023/12/09 10:58:09;;;;;;;0.00;0.00;;;;;;;6.19;100.00;98641.47;5156769;27;20181;-52
2023/12/09 11:00:58;;;;;;;0.00;0.00;;;;;;;6.27;100.00;98622.63;5155658;27;20197;-52
2023/12/09 11:03:46;;;;;;;0.03;0.03;;;;;;;6.21;100.00;98604.56;5141414;27;20185;-52
2023/12/09 11:06:37;;;;;;;0.00;0.00;;;;;;;6.28;100.00;98606.78;5156942;27;20263;-52
2023/12/09 11:09:25;;;;;;;0.00;0.00;;;;;;;6.32;100.00;98605.69;5156702;27;20192;-52
2023/12/09 11:12:23;;;;;;;0.00;0.00;;;;;;;6.54;100.00;98597.41;5156919;27;20226;-52
2023/12/09 11:15:19;;;;;;;0.00;0.00;;;;;;;6.69;100.00;98581.72;5155704;27;20255;-53
2023/12/09 11:18:10;;;;;;;0.00;0.00;;;;;;;6.75;100.00;98565.53;5156666;27;20663;-52
2023/12/09 11:20:59;;;;;;;0.10;0.10;;;;;;;6.90;100.00;98546.25;5156564;27;20193;-52
2023/12/09 11:23:51;;;;;;;0.00;0.00;;;;;;;6.72;100.00;98550.78;5156372;27;20315;-52
2023/12/09 11:26:41;;;;;;;0.00;0.00;;;;;;;6.75;100.00;98550.59;5156361;27;20233;-52
2023/12/09 11:29:28;;;;;;;0.00;0.00;;;;;;;6.68;100.00;98540.56;5156553;27;20188;-52
2023/12/09 11:32:15;;;;;;;0.00;0.00;;;;;;;6.86;100.00;98536.84;5155116;27;20204;-52
2023/12/09 11:35:03;;;;;;;0.00;0.00;;;;;;;6.78;100.00;98528.53;5156270;27;20209;-53
2023/12/09 11:37:51;;;;;;;0.00;0.00;;;;;;;6.81;100.00;98533.63;5156194;27;20193;-53
2023/12/09 11:40:38;;;;;;;0.00;0.00;;;;;;;6.83;100.00;98521.22;5156101;27;20857;-53
2023/12/09 11:43:25;;;;;;;0.10;0.10;;;;;;;6.63;100.00;98506.59;5156169;27;20757;-53
2023/12/09 11:46:13;;;;;;;0.00;0.00;;;;;;;6.76;100.00;98490.94;5154706;27;20188;-52
2023/12/09 11:49:01;;;;;;;0.10;0.10;;;;;;;6.93;100.00;98496.03;5154817;27;20269;-53
2023/12/09 11:51:48;;;;;;;0.00;0.00;;;;;;;7.04;100.00;98487.50;5155996;27;20188;-53
2023/12/09 11:54:36;;;;;;;0.00;0.00;;;;;;;7.12;100.00;98483.47;5155596;27;20230;-53
2023/12/09 11:57:23;;;;;;;0.00;0.00;;;;;;;7.09;100.00;98467.84;5155642;27;20196;-53
2023/12/09 12:00:11;;;;;;;0.10;0.10;;;;;;;7.27;100.00;98455.34;5154329;27;20666;-53
2023/12/09 12:02:58;;;;;;;0.00;0.00;;;;;;;7.31;100.00;98461.25;5155340;27;20188;-53
2023/12/09 12:05:45;;;;;;;0.00;0.00;;;;;;;7.10;100.00;98458.16;5155644;27;20287;-53
2023/12/09 12:08:32;;;;;;;0.00;0.00;;;;;;;7.16;100.00;98453.38;5155855;27;20235;-53
2023/12/09 12:11:23;;;;;;;0.10;0.10;;;;;;;7.09;100.00;98459.09;5155471;27;20246;-52
2023/12/09 12:14:10;;;;;;;0.00;0.00;;;;;;;7.04;100.00;98456.75;5155494;27;20192;-53
2023/12/09 12:16:57;;;;;;;0.00;0.00;;;;;;;7.00;100.00;98454.41;5153948;27;20212;-53
2023/12/09 12:19:44;;;;;;;0.00;0.00;;;;;;;7.03;100.00;98448.94;5155441;27;20254;-52
2023/12/09 12:22:31;;;;;;;0.00;0.00;;;;;;;7.09;100.00;98427.50;5155369;27;20250;-53
2023/12/09 12:25:18;;;;;;;0.00;0.00;;;;;;;7.03;100.00;98404.19;5155384;27;20192;-53
2023/12/09 12:28:07;;;;;;;0.00;0.00;;;;;;;7.15;100.00;98385.00;5154955;27;20224;-53
2023/12/09 12:30:55;;;;;;;0.00;0.00;;;;;;;7.15;100.00;98370.06;5153902;27;20705;-54
2023/12/09 12:33:42;;;;;;;0.00;0.00;;;;;;;7.26;100.00;98342.19;5155161;27;20196;-53
2023/12/09 12:36:30;;;;;;;0.00;0.00;;;;;;;7.33;100.00;98339.06;5154841;27;20240;-53
2023/12/09 12:39:17;;;;;;;0.00;0.00;;;;;;;7.43;100.00;98345.44;5155106;27;20278;-53
2023/12/09 12:42:05;;;;;;;0.00;0.00;;;;;;;7.22;100.00;98338.91;5155055;27;20200;-53
2023/12/09 12:44:53;;;;;;;0.00;0.00;;;;;;;7.38;100.00;98315.91;5155024;27;20307;-53
2023/12/09 12:47:40;;;;;;;0.00;0.00;;;;;;;7.24;100.00;98308.06;5155035;27;20192;-54
2023/12/09 12:50:27;;;;;;;0.00;0.00;;;;;;;7.22;100.00;98309.91;5154797;27;20193;-53
2023/12/09 12:53:13;;;;;;;0.00;0.00;;;;;;;7.19;100.00;98291.69;5154834;27;20196;-53
2023/12/09 12:56:00;;;;;;;0.00;0.00;;;;;;;7.32;100.00;98297.00;5154664;27;20201;-52
2023/12/09 12:58:47;;;;;;;0.00;0.00;;;;;;;7.35;100.00;98287.13;5154525;27;20315;-53
2023/12/09 13:01:35;;;;;;;0.10;0.10;;;;;;;7.44;100.00;98276.00;5153237;27;20188;-53
2023/12/09 13:04:22;;;;;;;0.00;0.00;;;;;;;7.51;100.00;98278.22;5154749;27;20666;-53
2023/12/09 13:07:09;;;;;;;0.00;0.00;;;;;;;7.46;100.00;98271.47;5154641;27;20196;-53
2023/12/09 13:09:56;;;;;;;0.00;0.00;;;;;;;7.50;100.00;98258.09;5138931;27;20210;-53